createdAt,value
2022-10-09T00:00:20.226Z,18.20
2022-10-09T00:02:46.854Z,16.20
2022-10-09T00:04:53.854Z,17.70
2022-10-09T00:07:00.444Z,20.70
2022-10-09T00:09:06.901Z,16.50
2022-10-09T00:11:24.664Z,18.20
2022-10-09T00:13:30.716Z,18.00
2022-10-09T00:15:47.988Z,15.10
2022-10-09T00:17:54.466Z,15.60
2022-10-09T00:20:00.878Z,15.30
2022-10-09T00:22:06.929Z,17.30
2022-10-09T00:24:13.036Z,16.80
2022-10-09T00:26:19.998Z,15.40
2022-10-09T00:28:29.334Z,17.70
2022-10-09T00:30:35.886Z,16.00
2022-10-09T00:32:42.339Z,16.60
2022-10-09T00:34:48.806Z,16.90
2022-10-09T00:36:55.215Z,17.30
2022-10-09T00:39:01.686Z,16.50
2022-10-09T00:41:08.040Z,20.10
2022-10-09T00:43:20.394Z,18.40
2022-10-09T00:45:27.615Z,23.00
2022-10-09T00:47:41.582Z,18.70
2022-10-09T00:49:49.740Z,21.10
2022-10-09T00:52:00.275Z,21.10
2022-10-09T00:54:10.486Z,19.90
2022-10-09T00:56:17.227Z,23.50
2022-10-09T00:58:25.043Z,20.70
2022-10-09T01:00:31.662Z,20.90
2022-10-09T01:02:37.991Z,23.40
2022-10-09T01:04:44.547Z,24.20
2022-10-09T01:07:15.391Z,23.80
2022-10-09T01:09:39.163Z,22.30
2022-10-09T01:12:02.080Z,24.30
2022-10-09T01:14:25.748Z,22.90
2022-10-09T01:16:42.830Z,22.70
2022-10-09T01:19:03.977Z,21.60
2022-10-09T01:21:34.290Z,25.50
2022-10-09T01:24:11.612Z,23.30
2022-10-09T01:26:18.033Z,30.70
2022-10-09T01:28:30.029Z,25.10
2022-10-09T01:30:38.279Z,23.70
2022-10-09T01:32:52.757Z,25.00
2022-10-09T01:35:00.658Z,22.70
2022-10-09T01:37:09.217Z,25.20
2022-10-09T01:39:22.982Z,23.90
2022-10-09T01:41:29.324Z,22.70
2022-10-09T01:43:35.479Z,23.30
2022-10-09T01:45:46.655Z,22.50
2022-10-09T01:50:15.306Z,26.30
2022-10-09T01:52:42.571Z,23.20
2022-10-09T01:55:22.860Z,24.30
2022-10-09T01:57:45.353Z,26.80
2022-10-09T01:59:53.829Z,24.70
2022-10-09T02:02:02.172Z,24.50
2022-10-09T02:04:12.735Z,24.50
2022-10-09T02:06:20.627Z,27.10
2022-10-09T02:08:27.699Z,31.30
2022-10-09T02:10:36.918Z,26.00
2022-10-09T02:12:48.574Z,26.30
2022-10-09T02:14:55.153Z,26.10
2022-10-09T02:17:16.503Z,29.40
2022-10-09T02:19:31.184Z,26.10
2022-10-09T02:21:46.450Z,28.60
2022-10-09T02:23:54.799Z,30.40
2022-10-09T02:26:01.514Z,29.90
2022-10-09T02:28:08.214Z,29.40
2022-10-09T02:30:16.687Z,26.70
2022-10-09T02:32:24.382Z,25.10
2022-10-09T02:34:31.004Z,25.30
2022-10-09T02:36:38.747Z,29.00
2022-10-09T02:38:48.117Z,30.40
2022-10-09T02:40:54.213Z,26.10
2022-10-09T02:43:00.349Z,27.00
2022-10-09T02:45:06.896Z,28.60
2022-10-09T02:47:13.116Z,34.50
2022-10-09T02:49:19.368Z,30.60
2022-10-09T02:51:26.570Z,34.40
2022-10-09T02:53:33.446Z,30.50
2022-10-09T02:55:39.807Z,30.40
2022-10-09T02:57:46.453Z,30.70
2022-10-09T02:59:52.462Z,29.90
2022-10-09T03:01:58.627Z,30.40
2022-10-09T03:04:05.626Z,27.50
2022-10-09T03:06:17.675Z,28.60
2022-10-09T03:08:24.013Z,28.70
2022-10-09T03:10:30.033Z,27.60
2022-10-09T03:12:35.951Z,32.20
2022-10-09T03:14:41.914Z,29.10
2022-10-09T03:16:48.281Z,28.40
2022-10-09T03:18:55.096Z,28.80
2022-10-09T03:21:01.378Z,28.70
2022-10-09T03:23:08.152Z,31.30
2022-10-09T03:25:14.475Z,31.50
2022-10-09T03:27:20.566Z,31.30
2022-10-09T03:29:27.259Z,29.80
2022-10-09T03:31:51.216Z,30.60
2022-10-09T03:33:59.099Z,31.50
2022-10-09T03:36:06.866Z,29.80
2022-10-09T03:38:12.845Z,33.20
2022-10-09T03:40:19.492Z,31.30
2022-10-09T03:42:26.057Z,29.80
2022-10-09T03:44:31.996Z,31.20
2022-10-09T03:46:38.075Z,29.60
2022-10-09T03:48:44.156Z,29.10
2022-10-09T03:50:50.123Z,31.40
2022-10-09T03:52:56.168Z,33.10
2022-10-09T03:55:02.222Z,32.60
2022-10-09T03:57:08.336Z,28.60
2022-10-09T03:59:14.417Z,34.10
2022-10-09T04:01:22.027Z,33.10
2022-10-09T04:03:30.911Z,31.60
2022-10-09T04:05:37.526Z,34.40
2022-10-09T04:07:43.460Z,35.20
2022-10-09T04:09:49.504Z,29.30
2022-10-09T04:11:55.852Z,33.40
2022-10-09T04:14:02.249Z,41.00
2022-10-09T04:16:10.490Z,41.90
2022-10-09T04:18:16.479Z,34.90
2022-10-09T04:20:22.852Z,34.30
2022-10-09T04:22:29.327Z,38.10
2022-10-09T04:24:35.484Z,32.00
2022-10-09T04:26:41.527Z,34.00
2022-10-09T04:28:47.681Z,30.80
2022-10-09T04:30:54.009Z,30.60
2022-10-09T04:33:00.979Z,34.20
2022-10-09T04:35:07.634Z,40.20
2022-10-09T04:37:14.149Z,37.30
2022-10-09T04:39:20.247Z,32.60
2022-10-09T04:41:26.367Z,36.90
2022-10-09T04:43:33.092Z,33.00
2022-10-09T04:45:42.736Z,37.90
2022-10-09T04:47:48.799Z,37.50
2022-10-09T04:49:54.758Z,33.00
2022-10-09T04:52:00.895Z,34.80
2022-10-09T04:54:06.996Z,32.80
2022-10-09T04:56:16.742Z,29.70
2022-10-09T04:58:22.816Z,36.60
2022-10-09T05:00:29.165Z,39.30
2022-10-09T05:02:35.124Z,35.10
2022-10-09T05:04:41.629Z,34.40
2022-10-09T05:06:47.650Z,33.80
2022-10-09T05:08:55.936Z,32.00
2022-10-09T05:11:08.250Z,38.30
2022-10-09T05:13:14.504Z,35.20
2022-10-09T05:15:21.057Z,33.60
2022-10-09T05:17:27.138Z,34.00
2022-10-09T05:19:34.269Z,35.90
2022-10-09T05:21:40.808Z,34.00
2022-10-09T05:23:47.556Z,32.80
2022-10-09T05:26:01.716Z,33.70
2022-10-09T05:28:08.285Z,32.60
2022-10-09T05:30:14.618Z,37.50
2022-10-09T05:32:21.201Z,41.00
2022-10-09T05:34:28.067Z,35.50
2022-10-09T05:36:34.809Z,36.90
2022-10-09T05:38:41.500Z,32.60
2022-10-09T05:41:02.641Z,34.30
2022-10-09T05:43:08.781Z,38.30
2022-10-09T05:45:14.964Z,31.80
2022-10-09T05:47:20.923Z,34.70
2022-10-09T05:49:27.005Z,37.10
2022-10-09T05:51:35.696Z,30.50
2022-10-09T05:53:43.206Z,33.40
2022-10-09T05:55:49.197Z,35.70
2022-10-09T05:57:55.478Z,35.10
2022-10-09T06:00:01.522Z,35.10
2022-10-09T06:02:07.812Z,35.70
2022-10-09T06:04:22.737Z,32.90
2022-10-09T06:06:34.193Z,34.10
2022-10-09T06:08:40.740Z,32.70
2022-10-09T06:10:47.147Z,41.80
2022-10-09T06:12:53.781Z,31.30
2022-10-09T06:15:00.522Z,35.70
2022-10-09T06:17:06.707Z,33.80
2022-10-09T06:19:18.513Z,35.50
2022-10-09T06:21:26.403Z,36.50
2022-10-09T06:23:33.068Z,38.80
2022-10-09T06:25:39.479Z,37.30
2022-10-09T06:27:45.860Z,36.20
2022-10-09T06:29:52.195Z,38.80
2022-10-09T06:31:58.651Z,36.00
2022-10-09T06:34:05.840Z,37.30
2022-10-09T06:36:15.861Z,41.90
2022-10-09T06:38:21.960Z,35.60
2022-10-09T06:40:28.409Z,35.20
2022-10-09T06:42:34.304Z,38.40
2022-10-09T06:44:46.764Z,33.70
2022-10-09T06:46:52.689Z,36.30
2022-10-09T06:49:00.892Z,41.00
2022-10-09T06:51:08.656Z,33.40
2022-10-09T06:53:14.583Z,32.80
2022-10-09T06:55:21.709Z,39.90
2022-10-09T06:57:30.114Z,36.80
2022-10-09T06:59:36.161Z,35.50
2022-10-09T07:01:42.765Z,37.90
2022-10-09T07:03:54.230Z,39.30
2022-10-09T07:06:16.811Z,34.90
2022-10-09T07:08:22.877Z,39.90
2022-10-09T07:10:29.485Z,39.20
2022-10-09T07:12:39.060Z,38.20
2022-10-09T07:14:45.064Z,41.80
2022-10-09T07:16:53.030Z,42.00
2022-10-09T07:19:01.277Z,36.00
2022-10-09T07:21:09.908Z,29.70
2022-10-09T07:23:15.901Z,36.80
2022-10-09T07:25:21.950Z,40.90
2022-10-09T07:27:28.121Z,35.10
2022-10-09T07:29:34.132Z,33.50
2022-10-09T07:31:40.133Z,39.30
2022-10-09T07:33:50.190Z,34.20
2022-10-09T07:35:57.652Z,36.50
2022-10-09T07:38:04.768Z,34.90
2022-10-09T07:40:11.549Z,32.80
2022-10-09T07:42:17.991Z,33.30
2022-10-09T07:44:24.446Z,36.20
2022-10-09T07:46:33.722Z,41.50
2022-10-09T07:48:41.060Z,36.60
2022-10-09T07:50:47.385Z,38.80
2022-10-09T07:52:53.470Z,32.40
2022-10-09T07:55:00.032Z,39.20
2022-10-09T07:57:06.747Z,36.00
2022-10-09T07:59:17.398Z,38.50
2022-10-09T08:01:25.359Z,36.70
2022-10-09T08:03:31.959Z,36.70
2022-10-09T08:05:38.555Z,37.50
2022-10-09T08:07:45.025Z,36.20
2022-10-09T08:09:51.345Z,35.60
2022-10-09T08:11:58.536Z,37.00
2022-10-09T08:14:05.401Z,38.30
2022-10-09T08:16:12.128Z,34.70
2022-10-09T08:18:18.163Z,36.10
2022-10-09T08:20:24.565Z,36.70
2022-10-09T08:22:30.644Z,33.40
2022-10-09T08:24:36.603Z,37.50
2022-10-09T08:26:44.085Z,35.40
2022-10-09T08:29:01.599Z,36.70
2022-10-09T08:31:15.364Z,36.00
2022-10-09T08:33:23.116Z,41.10
2022-10-09T08:35:33.663Z,38.60
2022-10-09T08:37:41.685Z,35.20
2022-10-09T08:39:48.279Z,34.50
2022-10-09T08:41:59.665Z,34.00
2022-10-09T08:44:19.898Z,36.20
2022-10-09T08:46:33.796Z,33.80
2022-10-09T08:48:45.629Z,34.40
2022-10-09T08:53:31.441Z,34.70
2022-10-09T08:55:52.187Z,33.00
2022-10-09T08:58:06.741Z,35.30
2022-10-09T09:00:21.702Z,34.60
2022-10-09T09:02:51.529Z,30.90
2022-10-09T09:05:03.652Z,32.30
2022-10-09T09:09:19.662Z,31.10
2022-10-09T09:11:50.277Z,33.60
2022-10-09T09:14:30.484Z,34.60
2022-10-09T09:16:40.005Z,36.40
2022-10-09T09:18:46.190Z,35.00
2022-10-09T09:21:11.801Z,36.00
2022-10-09T09:23:18.577Z,35.80
2022-10-09T09:25:32.392Z,31.10
2022-10-09T09:27:39.861Z,36.40
2022-10-09T09:30:04.144Z,32.10
2022-10-09T09:32:19.076Z,35.40
2022-10-09T09:34:37.487Z,34.40
2022-10-09T09:36:53.243Z,34.90
2022-10-09T09:39:49.875Z,32.80
2022-10-09T09:41:26.434Z,32.60
2022-10-09T09:43:32.595Z,30.70
2022-10-09T09:45:38.774Z,33.00
2022-10-09T09:47:51.221Z,34.70
2022-10-09T09:50:03.659Z,34.80
2022-10-09T09:52:10.988Z,41.90
2022-10-09T09:54:28.744Z,33.90
2022-10-09T09:57:11.045Z,31.00
2022-10-09T09:59:35.246Z,31.00
2022-10-09T10:01:41.630Z,34.50
2022-10-09T10:03:54.173Z,30.50
2022-10-09T10:06:00.245Z,34.00
2022-10-09T10:08:27.275Z,34.20
2022-10-09T10:10:33.348Z,32.20
2022-10-09T10:13:00.315Z,33.30
2022-10-09T10:15:06.715Z,29.60
2022-10-09T10:17:33.807Z,32.90
2022-10-09T10:19:41.233Z,28.80
2022-10-09T10:22:01.463Z,33.10
2022-10-09T10:24:13.434Z,36.90
2022-10-09T10:26:32.526Z,34.20
2022-10-09T10:28:53.202Z,33.80
2022-10-09T10:31:03.396Z,37.40
2022-10-09T10:33:23.781Z,33.20
2022-10-09T10:35:34.170Z,31.70
2022-10-09T10:37:49.054Z,35.20
2022-10-09T10:40:13.604Z,36.60
2022-10-09T10:43:00.274Z,36.50
2022-10-09T10:45:20.397Z,37.60
2022-10-09T10:47:31.413Z,33.40
2022-10-09T10:49:37.491Z,35.40
2022-10-09T10:52:12.022Z,33.40
2022-10-09T10:54:28.190Z,33.20
2022-10-09T10:56:45.626Z,33.40
2022-10-09T10:59:03.873Z,32.10
2022-10-09T11:01:28.092Z,41.70
2022-10-09T11:03:50.777Z,36.20
2022-10-09T11:06:04.059Z,34.00
2022-10-09T11:08:10.185Z,33.70
2022-10-09T11:10:22.105Z,32.20
2022-10-09T11:15:09.843Z,31.10
2022-10-09T11:17:43.191Z,30.90
2022-10-09T11:20:18.431Z,32.10
2022-10-09T11:23:01.483Z,33.80
2022-10-09T11:25:47.492Z,38.70
2022-10-09T11:28:06.227Z,36.30
2022-10-09T11:30:18.020Z,34.90
2022-10-09T11:32:32.055Z,31.70
2022-10-09T11:34:47.805Z,34.40
2022-10-09T11:36:54.707Z,32.30
2022-10-09T11:39:04.433Z,33.60
2022-10-09T11:41:10.956Z,29.90
2022-10-09T11:43:27.319Z,31.70
2022-10-09T11:45:45.624Z,30.50
2022-10-09T11:48:20.825Z,32.20
2022-10-09T11:50:51.221Z,31.60
2022-10-09T11:53:14.990Z,27.90
2022-10-09T11:55:23.132Z,30.10
2022-10-09T11:57:31.198Z,31.50
2022-10-09T11:59:43.195Z,32.60
2022-10-09T12:01:49.897Z,33.60
2022-10-09T12:04:14.744Z,30.40
2022-10-09T12:06:23.467Z,37.40
2022-10-09T12:08:30.132Z,31.40
2022-10-09T12:10:36.929Z,32.30
2022-10-09T12:12:44.284Z,31.10
2022-10-09T12:14:53.049Z,33.30
2022-10-09T12:17:00.783Z,29.90
2022-10-09T12:19:16.593Z,31.60
2022-10-09T12:21:30.253Z,32.50
2022-10-09T12:23:41.567Z,31.10
2022-10-09T12:25:48.789Z,30.90
2022-10-09T12:28:00.098Z,33.00
2022-10-09T12:30:15.935Z,31.60
2022-10-09T12:32:40.558Z,33.40
2022-10-09T12:34:51.471Z,31.30
2022-10-09T12:37:21.215Z,30.00
2022-10-09T12:39:27.585Z,37.60
2022-10-09T12:41:37.532Z,28.90
2022-10-09T12:43:47.660Z,27.20
2022-10-09T12:45:55.137Z,27.90
2022-10-09T12:48:11.914Z,29.60
2022-10-09T12:50:18.430Z,29.90
2022-10-09T12:52:24.677Z,29.90
2022-10-09T12:54:32.849Z,32.80
2022-10-09T12:56:41.001Z,27.70
2022-10-09T12:58:47.283Z,27.80
2022-10-09T13:00:56.994Z,26.40
2022-10-09T13:03:03.607Z,26.50
2022-10-09T13:05:10.101Z,27.80
2022-10-09T13:07:23.055Z,30.10
2022-10-09T13:09:31.409Z,29.40
2022-10-09T13:11:41.816Z,27.50
2022-10-09T13:13:53.383Z,30.60
2022-10-09T13:16:01.626Z,35.70
2022-10-09T13:18:25.791Z,27.00
2022-10-09T13:20:34.084Z,27.60
2022-10-09T13:22:40.999Z,28.50
2022-10-09T13:24:48.256Z,29.20
2022-10-09T13:26:54.262Z,30.90
2022-10-09T13:29:03.743Z,28.90
2022-10-09T13:31:10.563Z,29.00
2022-10-09T13:33:18.181Z,31.90
2022-10-09T13:35:24.703Z,28.90
2022-10-09T13:37:31.003Z,30.20
2022-10-09T13:39:37.298Z,28.40
2022-10-09T13:41:47.387Z,30.80
2022-10-09T13:43:54.889Z,33.00
2022-10-09T13:46:01.096Z,28.80
2022-10-09T13:48:07.174Z,34.80
2022-10-09T13:50:15.926Z,30.00
2022-10-09T13:52:21.968Z,30.60
2022-10-09T13:54:28.170Z,30.30
2022-10-09T13:56:34.763Z,29.70
2022-10-09T13:58:40.919Z,29.20
2022-10-09T14:00:47.844Z,27.60
2022-10-09T14:02:53.915Z,25.70
2022-10-09T14:04:59.962Z,30.10
2022-10-09T14:07:06.493Z,27.60
2022-10-09T14:09:12.979Z,26.20
2022-10-09T14:11:19.321Z,28.00
2022-10-09T14:13:25.685Z,28.50
2022-10-09T14:15:32.010Z,30.70
2022-10-09T14:17:38.388Z,30.00
2022-10-09T14:19:45.070Z,26.30
2022-10-09T14:21:51.534Z,28.90
2022-10-09T14:24:00.116Z,30.00
2022-10-09T14:26:07.982Z,29.70
2022-10-09T14:28:14.417Z,31.10
2022-10-09T14:30:20.601Z,29.60
2022-10-09T14:32:26.821Z,31.60
2022-10-09T14:34:32.784Z,29.20
2022-10-09T14:36:41.556Z,29.40
2022-10-09T14:38:49.422Z,31.40
2022-10-09T14:40:57.367Z,31.00
2022-10-09T14:43:03.488Z,28.80
2022-10-09T14:45:11.490Z,26.00
2022-10-09T14:47:17.529Z,26.20
2022-10-09T14:49:23.595Z,31.20
2022-10-09T14:51:32.538Z,28.70
2022-10-09T14:53:41.054Z,29.30
2022-10-09T14:55:47.568Z,29.30
2022-10-09T14:57:54.168Z,30.60
2022-10-09T15:00:00.963Z,29.90
2022-10-09T15:02:08.310Z,30.20
2022-10-09T15:04:16.202Z,29.70
2022-10-09T15:06:25.242Z,28.70
2022-10-09T15:08:32.550Z,32.80
2022-10-09T15:10:38.929Z,31.80
2022-10-09T15:12:45.357Z,29.70
2022-10-09T15:14:51.938Z,30.80
2022-10-09T15:16:58.515Z,26.90
2022-10-09T15:19:06.690Z,32.40
2022-10-09T15:21:22.764Z,27.50
2022-10-09T15:23:29.884Z,30.90
2022-10-09T15:25:36.206Z,28.40
2022-10-09T15:27:42.894Z,26.50
2022-10-09T15:29:49.564Z,33.10
2022-10-09T15:31:56.139Z,25.00
2022-10-09T15:34:02.803Z,29.20
2022-10-09T15:36:08.898Z,28.50
2022-10-09T15:38:16.871Z,31.90
2022-10-09T15:40:22.956Z,28.50
2022-10-09T15:42:29.682Z,27.90
2022-10-09T15:44:35.743Z,30.00
2022-10-09T15:46:41.848Z,30.60
2022-10-09T15:48:48.767Z,28.50
2022-10-09T15:50:54.749Z,26.80
2022-10-09T15:53:01.082Z,29.90
2022-10-09T15:55:07.854Z,28.50
2022-10-09T15:57:13.918Z,28.40
2022-10-09T15:59:19.872Z,26.40
2022-10-09T16:01:26.891Z,31.30
2022-10-09T16:03:36.974Z,27.00
2022-10-09T16:05:48.083Z,29.40
2022-10-09T16:07:54.566Z,28.40
2022-10-09T16:10:00.927Z,31.20
2022-10-09T16:12:07.082Z,28.10
2022-10-09T16:14:12.993Z,33.10
2022-10-09T16:16:23.748Z,30.80
2022-10-09T16:18:29.836Z,29.20
2022-10-09T16:20:37.602Z,32.90
2022-10-09T16:22:44.042Z,39.90
2022-10-09T16:24:50.116Z,36.50
2022-10-09T16:26:56.290Z,31.90
2022-10-09T16:29:02.437Z,30.50
2022-10-09T16:31:08.642Z,34.90
2022-10-09T16:33:14.602Z,37.50
2022-10-09T16:35:21.070Z,36.00
2022-10-09T16:37:27.092Z,37.80
2022-10-09T16:39:33.438Z,40.90
2022-10-09T16:41:41.952Z,39.20
2022-10-09T16:43:50.078Z,38.20
2022-10-09T16:45:56.026Z,40.30
2022-10-09T16:48:02.423Z,35.00
2022-10-09T16:50:09.520Z,35.70
2022-10-09T16:52:15.867Z,38.80
2022-10-09T16:54:21.814Z,36.00
2022-10-09T16:56:34.276Z,33.70
2022-10-09T16:58:41.481Z,31.20
2022-10-09T17:00:47.959Z,32.20
2022-10-09T17:02:53.994Z,31.00
2022-10-09T17:05:00.053Z,34.40
2022-10-09T17:07:06.784Z,32.20
2022-10-09T17:09:14.511Z,32.10
2022-10-09T17:11:21.048Z,27.70
2022-10-09T17:13:27.917Z,28.20
2022-10-09T17:15:34.333Z,25.00
2022-10-09T17:17:40.859Z,25.90
2022-10-09T17:19:47.477Z,25.00
2022-10-09T17:21:54.135Z,26.90
2022-10-09T17:24:02.179Z,29.30
2022-10-09T17:26:14.127Z,29.70
2022-10-09T17:28:20.810Z,31.30
2022-10-09T17:30:27.980Z,28.60
2022-10-09T17:32:34.653Z,34.00
2022-10-09T17:34:44.187Z,31.60
2022-10-09T17:36:50.141Z,33.40
2022-10-09T17:38:56.921Z,32.40
2022-10-09T17:41:08.219Z,31.30
2022-10-09T17:43:14.197Z,29.30
2022-10-09T17:45:20.321Z,30.40
2022-10-09T17:47:26.366Z,29.60
2022-10-09T17:49:32.938Z,36.20
2022-10-09T17:51:41.331Z,32.50
2022-10-09T17:53:48.291Z,35.00
2022-10-09T17:55:56.959Z,29.90
2022-10-09T17:58:03.387Z,34.70
2022-10-09T18:00:11.815Z,35.00
2022-10-09T18:02:18.334Z,30.20
2022-10-09T18:04:25.342Z,27.50
2022-10-09T18:06:36.017Z,29.30
2022-10-09T18:08:42.535Z,29.60
2022-10-09T18:10:58.166Z,28.60
2022-10-09T18:13:07.966Z,28.60
2022-10-09T18:15:14.074Z,23.90
2022-10-09T18:17:20.090Z,30.40
2022-10-09T18:19:26.162Z,27.70
2022-10-09T18:21:32.421Z,24.10
2022-10-09T18:23:38.900Z,26.00
2022-10-09T18:25:46.072Z,26.00
2022-10-09T18:27:52.546Z,22.60
2022-10-09T18:29:58.897Z,21.90
2022-10-09T18:32:05.037Z,29.10
2022-10-09T18:34:11.790Z,27.10
2022-10-09T18:36:24.094Z,24.80
2022-10-09T18:38:30.083Z,24.20
2022-10-09T18:40:45.873Z,23.60
2022-10-09T18:42:53.532Z,24.20
2022-10-09T18:45:00.032Z,23.50
2022-10-09T18:47:06.316Z,23.90
2022-10-09T18:49:15.218Z,25.00
2022-10-09T18:51:25.270Z,26.20
2022-10-09T18:53:32.638Z,22.40
2022-10-09T18:55:38.682Z,28.00
2022-10-09T18:57:45.584Z,24.90
2022-10-09T18:59:53.100Z,26.40
2022-10-09T19:01:59.219Z,23.70
2022-10-09T19:04:05.609Z,26.90
2022-10-09T19:06:11.737Z,25.10
2022-10-09T19:08:17.847Z,23.80
2022-10-09T19:10:24.099Z,23.20
2022-10-09T19:12:30.195Z,22.90
2022-10-09T19:14:37.427Z,25.40
2022-10-09T19:16:43.895Z,22.50
2022-10-09T19:18:49.964Z,23.30
2022-10-09T19:20:55.980Z,21.70
2022-10-09T19:23:02.569Z,25.40
2022-10-09T19:25:09.184Z,24.40
2022-10-09T19:27:16.065Z,23.70
2022-10-09T19:29:22.381Z,20.70
2022-10-09T19:31:28.907Z,22.60
2022-10-09T19:33:35.575Z,21.80
2022-10-09T19:35:54.364Z,20.20
2022-10-09T19:38:00.793Z,20.50
2022-10-09T19:40:07.688Z,19.70
2022-10-09T19:42:13.925Z,22.20
2022-10-09T19:44:21.036Z,20.30
2022-10-09T19:46:28.219Z,23.40
2022-10-09T19:48:35.666Z,23.80
2022-10-09T19:50:44.416Z,20.60
2022-10-09T19:52:50.672Z,20.70
2022-10-09T19:54:57.131Z,20.20
2022-10-09T19:57:03.872Z,20.20
2022-10-09T19:59:16.094Z,20.40
2022-10-09T20:01:25.787Z,21.10
2022-10-09T20:03:32.304Z,22.40
2022-10-09T20:05:39.229Z,23.60
2022-10-09T20:07:45.643Z,19.30
2022-10-09T20:09:51.718Z,19.50
2022-10-09T20:11:57.778Z,20.10
2022-10-09T20:14:05.185Z,23.10
2022-10-09T20:16:14.457Z,21.00
2022-10-09T20:18:21.214Z,23.50
2022-10-09T20:20:28.206Z,21.70
2022-10-09T20:22:34.818Z,22.60
2022-10-09T20:24:41.316Z,21.00
2022-10-09T20:26:47.816Z,19.50
2022-10-09T20:28:57.396Z,20.20
2022-10-09T20:31:07.625Z,21.30
2022-10-09T20:33:13.971Z,21.00
2022-10-09T20:35:20.584Z,20.50
2022-10-09T20:37:27.328Z,18.90
2022-10-09T20:39:33.752Z,19.00
2022-10-09T20:41:41.167Z,23.40
2022-10-09T20:43:52.741Z,21.10
2022-10-09T20:45:59.497Z,23.00
2022-10-09T20:48:05.875Z,21.00
2022-10-09T20:50:12.939Z,20.10
2022-10-09T20:52:19.230Z,22.40
2022-10-09T20:54:25.903Z,22.30
2022-10-09T20:56:33.725Z,23.70
2022-10-09T20:58:40.815Z,20.70
2022-10-09T21:00:46.732Z,21.90
2022-10-09T21:02:53.078Z,22.00
2022-10-09T21:04:59.394Z,20.60
2022-10-09T21:07:05.571Z,25.40
2022-10-09T21:09:11.978Z,20.50
2022-10-09T21:11:19.743Z,22.60
2022-10-09T21:13:25.929Z,26.60
2022-10-09T21:15:32.504Z,21.50
2022-10-09T21:17:38.677Z,22.90
2022-10-09T21:19:44.917Z,22.30
2022-10-09T21:21:51.537Z,23.70
2022-10-09T21:23:59.776Z,25.10
2022-10-09T21:26:06.693Z,21.80
2022-10-09T21:28:13.066Z,24.10
2022-10-09T21:30:19.756Z,24.80
2022-10-09T21:32:25.985Z,23.00
2022-10-09T21:34:32.549Z,22.90
2022-10-09T21:37:19.827Z,22.90
2022-10-09T21:39:21.032Z,25.00
2022-10-09T21:41:27.758Z,21.80
2022-10-09T21:43:34.332Z,21.10
2022-10-09T21:45:41.824Z,22.40
2022-10-09T21:47:47.969Z,25.90
2022-10-09T21:49:54.088Z,22.60
2022-10-09T21:52:00.671Z,28.10
2022-10-09T21:54:06.759Z,22.10
2022-10-09T21:56:13.683Z,23.10
2022-10-09T21:58:19.922Z,24.10
2022-10-09T22:00:26.367Z,24.20
2022-10-09T22:02:33.089Z,24.30
2022-10-09T22:04:39.057Z,24.70
2022-10-09T22:06:45.141Z,30.10
2022-10-09T22:08:51.565Z,25.40
2022-10-09T22:10:57.635Z,24.60
2022-10-09T22:13:04.151Z,23.70
2022-10-09T22:15:10.981Z,23.00
2022-10-09T22:17:17.367Z,23.20
2022-10-09T22:19:23.671Z,25.20
2022-10-09T22:21:30.117Z,25.30
2022-10-09T22:23:36.689Z,24.30
2022-10-09T22:25:43.057Z,26.80
2022-10-09T22:27:49.102Z,28.50
2022-10-09T22:29:55.250Z,22.90
2022-10-09T22:32:01.630Z,24.50
2022-10-09T22:34:08.088Z,23.50
2022-10-09T22:36:17.238Z,25.60
2022-10-09T22:38:23.440Z,29.60
2022-10-09T22:40:29.510Z,24.50
2022-10-09T22:42:35.903Z,24.70
2022-10-09T22:44:42.530Z,22.00
2022-10-09T22:46:52.321Z,21.30
2022-10-09T22:48:59.001Z,21.60
2022-10-09T22:51:07.452Z,27.10
2022-10-09T22:53:13.930Z,22.80
2022-10-09T22:55:20.590Z,21.20
2022-10-09T22:57:27.923Z,21.70
2022-10-09T22:59:34.075Z,21.80
2022-10-09T23:01:49.400Z,27.30
2022-10-09T23:03:55.468Z,21.40
2022-10-09T23:06:09.536Z,21.00
2022-10-09T23:08:15.912Z,20.40
2022-10-09T23:10:22.023Z,20.50
2022-10-09T23:12:28.193Z,19.30
2022-10-09T23:14:34.242Z,20.00
2022-10-09T23:16:40.948Z,20.60
2022-10-09T23:18:47.326Z,20.00
2022-10-09T23:20:53.359Z,17.80
2022-10-09T23:22:59.419Z,20.40
2022-10-09T23:25:05.890Z,18.90
2022-10-09T23:27:12.182Z,24.70
2022-10-09T23:29:21.769Z,18.50
2022-10-09T23:31:29.661Z,19.50
2022-10-09T23:33:36.239Z,19.40
2022-10-09T23:35:45.628Z,18.10
2022-10-09T23:37:54.605Z,18.00
2022-10-09T23:40:01.085Z,20.20
2022-10-09T23:42:07.058Z,19.90
2022-10-09T23:44:13.366Z,17.50
2022-10-09T23:46:22.172Z,18.90
2022-10-09T23:48:29.289Z,18.70
2022-10-09T23:50:35.247Z,17.20
2022-10-09T23:52:41.248Z,17.10
2022-10-09T23:54:47.183Z,19.10
2022-10-09T23:56:53.166Z,17.20
2022-10-09T23:59:01.067Z,17.60
